Time;durP1;ratioP1;P1;durP2;ratioP2;P2;SDS_P1;SDS_P2;PMS_P1;PMS_P2;Temp;Humidity;BMP_temperature;BMP_pressure;BME280_temperature;BME280_humidity;BME280_pressure;Samples;Min_cycle;Max_cycle;Signal;HPM_P1;HPM_P2
2023/07/03 00:00:06;;;;;;;4.63;2.63;;;25.60;41.30;;;;;;5007866;28;87066;-93
2023/07/03 00:02:32;;;;;;;6.68;2.70;;;25.60;41.30;;;;;;5005835;28;89234;-93
2023/07/03 00:04:58;;;;;;;6.80;2.97;;;25.60;41.30;;;;;;5007836;28;91334;-90
2023/07/03 00:07:23;;;;;;;6.80;2.95;;;25.60;41.40;;;;;;5012058;28;90428;-90
2023/07/03 00:09:49;;;;;;;6.15;3.15;;;25.60;42.00;;;;;;5013511;28;87889;-90
2023/07/03 00:12:15;;;;;;;4.68;2.58;;;25.50;41.40;;;;;;5014311;28;88198;-91
2023/07/03 00:14:40;;;;;;;4.75;2.53;;;25.50;41.50;;;;;;5012105;28;90680;-91
2023/07/03 00:17:09;;;;;;;6.15;2.95;;;25.50;41.50;;;;;;5013716;28;88700;-94
2023/07/03 00:19:35;;;;;;;;;;;25.60;41.70;;;;;;5013488;28;87355;-91
2023/07/03 00:22:00;;;;;;;3.95;2.40;;;25.50;41.80;;;;;;5015785;28;89350;-92
2023/07/03 00:24:28;;;;;;;3.75;2.20;;;25.50;41.70;;;;;;5014199;28;89890;-93
2023/07/03 00:26:55;;;;;;;4.35;2.47;;;25.50;41.70;;;;;;5014347;28;89915;-93
2023/07/03 00:29:21;;;;;;;3.58;2.22;;;25.50;41.90;;;;;;5012499;28;88830;-93
2023/07/03 00:31:46;;;;;;;3.72;2.08;;;25.50;41.80;;;;;;5015644;28;87360;-93
2023/07/03 00:34:12;;;;;;;4.82;2.38;;;25.50;42.00;;;;;;5013410;28;89739;-94
2023/07/03 00:36:38;;;;;;;4.78;2.70;;;25.50;42.20;;;;;;5013291;28;90231;-93
2023/07/03 00:39:04;;;;;;;4.07;2.38;;;25.50;42.10;;;;;;5014511;28;87461;-92
2023/07/03 00:41:30;;;;;;;4.40;2.40;;;25.50;42.10;;;;;;5014000;28;88149;-93
2023/07/03 00:43:56;;;;;;;5.15;2.70;;;25.50;42.20;;;;;;5013349;28;89407;-92
2023/07/03 00:46:22;;;;;;;4.03;2.50;;;25.50;42.30;;;;;;5013033;28;89447;-92
2023/07/03 00:48:48;;;;;;;5.72;2.90;;;25.50;42.40;;;;;;5013527;28;87705;-92
2023/07/03 00:51:15;;;;;;;6.20;2.67;;;25.50;42.20;;;;;;5013726;28;89167;-92
2023/07/03 00:53:41;;;;;;;6.15;2.70;;;25.40;42.30;;;;;;5012623;28;91443;-93
2023/07/03 00:56:07;;;;;;;5.50;2.70;;;25.40;42.40;;;;;;5029913;27;89777;-93
2023/07/03 00:58:33;;;;;;;4.15;2.13;;;25.40;42.60;;;;;;5013951;28;87520;-93
2023/07/03 01:01:15;;;;;;;4.07;2.28;;;25.40;42.50;;;;;;5012036;28;88224;-93
2023/07/03 01:03:47;;;;;;;5.60;2.47;;;25.40;42.50;;;;;;5028452;28;90271;-91
2023/07/03 01:06:19;;;;;;;4.53;2.67;;;25.40;42.50;;;;;;5013657;28;90665;-92
2023/07/03 01:08:49;;;;;;;6.05;2.78;;;25.40;42.50;;;;;;5013680;28;86925;-92
2023/07/03 01:11:15;;;;;;;3.53;2.20;;;25.40;42.70;;;;;;5029867;27;89160;-92
2023/07/03 01:13:42;;;;;;;4.07;2.60;;;25.40;42.60;;;;;;5028118;27;90837;-92
2023/07/03 01:16:09;;;;;;;4.45;2.53;;;25.40;42.50;;;;;;5011203;28;89568;-92
2023/07/03 01:18:36;;;;;;;4.45;2.42;;;25.40;42.60;;;;;;5011389;28;87976;-93
2023/07/03 01:21:28;;;;;;;4.10;2.22;;;25.40;42.70;;;;;;5013827;28;89470;-92
2023/07/03 01:24:00;;;;;;;5.30;2.78;;;25.40;42.70;;;;;;5012615;28;89560;-93
2023/07/03 01:26:27;;;;;;;3.25;1.90;;;25.40;43.30;;;;;;5011454;28;90214;-91
2023/07/03 01:28:59;;;;;;;4.10;2.65;;;25.40;42.70;;;;;;5013715;28;87954;-92
2023/07/03 01:31:27;;;;;;;4.63;2.58;;;25.40;42.80;;;;;;5012036;28;87956;-92
2023/07/03 01:33:55;;;;;;;4.43;2.28;;;25.40;42.90;;;;;;5012401;28;90572;-92
2023/07/03 01:36:22;;;;;;;3.75;2.38;;;25.40;42.90;;;;;;5029074;28;89992;-91
2023/07/03 01:38:49;;;;;;;3.72;2.53;;;25.40;42.80;;;;;;5010312;28;87872;-92
2023/07/03 01:41:17;;;;;;;4.47;2.70;;;25.30;42.90;;;;;;5011604;28;89367;-92
2023/07/03 01:43:45;;;;;;;4.68;2.45;;;25.40;43.00;;;;;;5010296;28;89926;-92
2023/07/03 01:46:12;;;;;;;3.20;2.37;;;25.30;42.90;;;;;;5012012;28;91232;-92
2023/07/03 01:48:37;;;;;;;3.60;2.40;;;25.30;43.00;;;;;;5012459;28;87694;-92
2023/07/03 01:51:07;;;;;;;5.10;2.58;;;25.30;43.10;;;;;;5012719;28;89188;-91
2023/07/03 01:53:49;;;;;;;5.28;2.80;;;25.30;42.90;;;;;;5010642;28;90577;-92
2023/07/03 01:56:23;;;;;;;5.95;2.97;;;25.30;43.00;;;;;;5011877;28;90181;-92
2023/07/03 01:59:02;;;;;;;4.72;2.80;;;25.30;42.70;;;;;;5009863;28;88151;-91
2023/07/03 02:01:34;;;;;;;6.50;3.20;;;25.30;42.90;;;;;;5010983;28;89211;-92
2023/07/03 02:04:07;;;;;;;5.35;2.70;;;25.40;42.90;;;;;;5027163;27;89223;-92
2023/07/03 02:06:40;;;;;;;4.07;2.50;;;25.40;42.80;;;;;;5012269;28;89892;-92
2023/07/03 02:09:07;;;;;;;4.82;2.63;;;25.40;42.70;;;;;;5012424;28;88449;-93
2023/07/03 02:11:34;;;;;;;4.97;2.90;;;25.30;42.90;;;;;;5012726;28;89511;-92
2023/07/03 02:14:00;;;;;;;4.88;2.55;;;25.30;42.90;;;;;;5011101;28;89050;-92
2023/07/03 02:16:29;;;;;;;4.18;2.33;;;25.30;43.00;;;;;;5012955;28;89598;-93
2023/07/03 02:18:55;;;;;;;6.13;2.42;;;25.30;43.00;;;;;;5012408;28;88036;-92
2023/07/03 02:21:21;;;;;;;7.35;2.88;;;25.30;42.90;;;;;;5013723;28;89171;-92
2023/07/03 02:23:47;;;;;;;5.78;2.75;;;25.30;43.00;;;;;;5029586;27;88717;-92
2023/07/03 02:26:14;;;;;;;6.82;2.58;;;25.30;43.10;;;;;;5011880;28;90416;-93
2023/07/03 02:28:40;;;;;;;3.80;2.40;;;25.30;43.20;;;;;;5011443;28;87388;-93
2023/07/03 02:31:06;;;;;;;5.20;2.35;;;25.30;43.00;;;;;;5012862;28;88191;-93
2023/07/03 02:33:32;;;;;;;4.50;2.70;;;25.30;43.10;;;;;;5012116;28;91488;-93
2023/07/03 02:36:00;;;;;;;4.72;2.25;;;25.30;43.00;;;;;;5011620;28;90735;-92
2023/07/03 02:38:26;;;;;;;3.22;2.20;;;25.30;43.00;;;;;;5027796;27;88179;-92
2023/07/03 02:40:51;;;;;;;4.90;2.85;;;25.30;43.10;;;;;;5011588;28;87762;-92
2023/07/03 02:43:17;;;;;;;3.50;2.30;;;25.30;43.10;;;;;;5010990;28;89562;-92
2023/07/03 02:45:43;;;;;;;3.58;2.42;;;25.30;43.20;;;;;;5012295;28;90054;-92
2023/07/03 02:48:10;;;;;;;3.60;2.33;;;25.30;43.20;;;;;;5012747;28;87580;-92
2023/07/03 02:50:35;;;;;;;6.05;2.55;;;25.30;43.90;;;;;;5027451;28;88990;-92
2023/07/03 02:53:02;;;;;;;5.20;2.47;;;25.30;43.10;;;;;;5010560;28;90726;-92
2023/07/03 02:55:27;;;;;;;4.55;2.40;;;25.30;43.10;;;;;;5010998;28;89939;-92
2023/07/03 02:57:57;;;;;;;3.88;2.47;;;25.30;43.00;;;;;;5010250;28;88376;-92
2023/07/03 03:00:23;;;;;;;4.45;2.25;;;25.30;43.10;;;;;;5012185;28;89127;-93
2023/07/03 03:02:49;;;;;;;4.47;2.42;;;25.30;43.10;;;;;;5011752;28;90346;-92
2023/07/03 03:05:15;;;;;;;3.45;2.05;;;25.30;42.90;;;;;;5010141;28;89642;-92
2023/07/03 03:07:41;;;;;;;4.25;2.38;;;25.30;42.90;;;;;;5011116;28;87522;-91
2023/07/03 03:10:07;;;;;;;4.55;2.53;;;25.30;43.20;;;;;;5010552;28;89226;-92
2023/07/03 03:12:33;;;;;;;5.22;2.28;;;25.30;43.20;;;;;;5009958;28;90413;-92
2023/07/03 03:14:59;;;;;;;4.85;2.75;;;25.20;43.10;;;;;;5012466;28;90885;-92
2023/07/03 03:17:24;;;;;;;4.47;2.53;;;25.20;43.20;;;;;;5010238;28;87041;-92
2023/07/03 03:19:50;;;;;;;6.75;2.78;;;25.30;43.00;;;;;;5010076;28;89028;-93
2023/07/03 03:22:16;;;;;;;3.63;2.33;;;25.20;43.00;;;;;;5009768;28;91757;-93
2023/07/03 03:24:41;;;;;;;4.00;2.38;;;25.30;43.00;;;;;;5009526;28;91320;-92
2023/07/03 03:27:07;;;;;;;3.75;2.50;;;25.50;42.80;;;;;;5012762;28;87054;-92
2023/07/03 03:29:34;;;;;;;5.32;2.78;;;25.40;42.60;;;;;;5011102;28;89221;-92
2023/07/03 03:31:59;;;;;;;4.05;2.80;;;25.40;42.80;;;;;;5009897;28;89564;-92
2023/07/03 03:34:25;;;;;;;3.35;2.30;;;25.50;42.80;;;;;;5009665;28;89646;-92
2023/07/03 03:36:51;;;;;;;6.00;2.72;;;25.50;42.90;;;;;;5011101;28;87161;-93
2023/07/03 03:39:17;;;;;;;3.75;2.33;;;25.50;42.80;;;;;;5012994;28;88579;-93
2023/07/03 03:41:42;;;;;;;4.90;2.38;;;25.60;42.60;;;;;;5009347;28;90557;-92
2023/07/03 03:44:08;;;;;;;3.08;2.05;;;25.70;42.50;;;;;;5010106;28;90258;-92
2023/07/03 03:46:34;;;;;;;4.25;2.42;;;25.60;42.50;;;;;;5007788;28;89022;-93
2023/07/03 03:49:00;;;;;;;4.00;2.30;;;25.50;42.80;;;;;;5008692;28;89163;-92
2023/07/03 03:51:26;;;;;;;2.95;2.28;;;25.50;42.90;;;;;;5011143;28;89497;-93
2023/07/03 03:53:52;;;;;;;4.57;2.47;;;25.50;42.70;;;;;;5010156;28;89511;-91
2023/07/03 03:56:19;;;;;;;5.10;2.60;;;25.50;42.70;;;;;;5009477;28;87707;-92
2023/07/03 03:58:46;;;;;;;4.35;2.60;;;25.40;42.70;;;;;;5009076;28;88975;-91
2023/07/03 04:01:12;;;;;;;4.15;2.70;;;25.60;42.70;;;;;;5008851;28;90570;-91
2023/07/03 04:03:37;;;;;;;3.97;2.67;;;25.60;42.50;;;;;;5010057;28;90397;-91
2023/07/03 04:06:07;;;;;;;3.10;2.13;;;25.60;42.60;;;;;;5010384;28;87811;-91
2023/07/03 04:08:33;;;;;;;4.15;1.85;;;25.60;42.50;;;;;;5009392;28;89634;-92
2023/07/03 04:10:58;;;;;;;3.72;2.35;;;25.60;42.60;;;;;;5010726;28;90441;-93
2023/07/03 04:13:24;;;;;;;3.60;2.55;;;25.60;42.60;;;;;;5027802;22;89974;-95
2023/07/03 04:15:52;;;;;;;3.00;1.88;;;25.60;42.80;;;;;;5011626;28;87454;-96
2023/07/03 04:18:20;;;;;;;6.05;2.53;;;25.60;42.80;;;;;;5013547;28;87053;-95
2023/07/03 04:20:46;;;;;;;3.83;2.38;;;25.50;42.70;;;;;;5010807;28;90204;-95
2023/07/03 04:23:11;;;;;;;3.80;2.45;;;25.40;42.80;;;;;;5012318;28;89589;-95
2023/07/03 04:25:37;;;;;;;4.18;2.45;;;25.50;42.80;;;;;;5012702;28;87408;-94
2023/07/03 04:28:03;;;;;;;3.15;2.10;;;25.50;42.70;;;;;;5011222;28;88035;-96
2023/07/03 04:30:28;;;;;;;3.17;2.08;;;25.50;42.80;;;;;;5014958;28;91749;-94
2023/07/03 04:32:54;;;;;;;4.63;2.30;;;25.40;42.90;;;;;;5010565;28;90194;-96
2023/07/03 04:35:21;;;;;;;3.20;2.20;;;25.40;43.00;;;;;;5010067;28;88787;-95
2023/07/03 04:37:47;;;;;;;4.05;2.70;;;25.50;42.80;;;;;;5009765;28;89540;-94
2023/07/03 04:40:17;;;;;;;4.78;2.45;;;25.50;42.70;;;;;;5012399;28;89442;-96
2023/07/03 04:42:43;;;;;;;5.60;2.83;;;25.50;42.80;;;;;;4994321;28;90004;-95
2023/07/03 04:45:09;;;;;;;4.97;2.55;;;25.50;42.80;;;;;;5012419;28;87753;-95
2023/07/03 04:47:38;;;;;;;3.83;2.55;;;25.40;42.90;;;;;;5010784;28;88014;-96
2023/07/03 04:50:07;;;;;;;3.97;2.20;;;25.60;42.90;;;;;;5009675;28;90487;-96
2023/07/03 04:52:38;;;;;;;4.20;2.33;;;25.60;42.80;;;;;;5011579;28;88958;-96
2023/07/03 04:55:08;;;;;;;5.03;2.83;;;25.50;43.00;;;;;;5014478;28;87686;-96
2023/07/03 04:57:38;;;;;;;3.33;2.22;;;25.50;42.90;;;;;;5014019;28;89081;-95
2023/07/03 05:00:14;;;;;;;3.35;2.17;;;25.50;42.90;;;;;;5014781;28;91250;-96
2023/07/03 05:02:41;;;;;;;5.10;2.58;;;25.70;42.80;;;;;;5013560;28;90826;-95
2023/07/03 05:05:07;;;;;;;3.75;2.17;;;25.70;42.90;;;;;;5015338;28;87049;-93
2023/07/03 05:07:33;;;;;;;4.60;2.40;;;25.80;42.50;;;;;;5012675;28;89546;-96
2023/07/03 05:09:58;;;;;;;4.40;2.47;;;25.90;42.50;;;;;;5013240;28;89294;-96
2023/07/03 05:12:24;;;;;;;3.95;2.35;;;25.90;42.40;;;;;;5016964;28;88948;-95
2023/07/03 05:14:50;;;;;;;4.10;2.53;;;25.90;42.50;;;;;;5016121;28;87889;-95
2023/07/03 05:17:15;;;;;;;3.97;2.17;;;25.80;42.60;;;;;;5016017;28;88048;-96
2023/07/03 05:19:41;;;;;;;3.65;1.98;;;25.80;42.70;;;;;;5012312;28;88552;-95
2023/07/03 05:22:06;;;;;;;3.60;2.40;;;25.70;42.70;;;;;;5013733;28;90218;-93
2023/07/03 05:24:32;;;;;;;4.55;2.35;;;25.70;42.90;;;;;;5014987;27;88421;-96
2023/07/03 05:27:01;;;;;;;5.68;2.42;;;25.70;42.80;;;;;;5012835;28;88936;-96
2023/07/03 05:29:27;;;;;;;;;;;25.70;42.80;;;;;;5013298;28;90736;-95
2023/07/03 05:31:52;;;;;;;5.50;2.55;;;25.70;42.80;;;;;;5013747;28;89982;-96
2023/07/03 05:34:18;;;;;;;4.40;2.65;;;25.80;42.70;;;;;;5012299;28;87035;-95
2023/07/03 05:36:44;;;;;;;4.30;2.60;;;25.80;42.70;;;;;;5013652;28;89340;-95
2023/07/03 05:39:10;;;;;;;4.35;2.42;;;25.80;42.70;;;;;;5012374;28;90411;-95
2023/07/03 05:41:35;;;;;;;4.38;2.58;;;25.80;42.70;;;;;;5005044;28;90702;-96
2023/07/03 05:44:01;;;;;;;3.00;2.15;;;25.80;42.70;;;;;;5017324;28;88419;-95
2023/07/03 05:46:27;;;;;;;3.83;2.20;;;25.80;42.70;;;;;;5018707;28;88682;-95
2023/07/03 05:48:56;;;;;;;3.40;2.30;;;25.80;42.70;;;;;;5018782;28;90140;-96
2023/07/03 05:51:21;;;;;;;3.47;2.10;;;25.70;42.70;;;;;;5035211;28;91755;-96
2023/07/03 05:53:47;;;;;;;4.18;2.50;;;25.80;42.60;;;;;;4990221;28;87715;-96
2023/07/03 05:56:13;;;;;;;3.85;2.15;;;25.70;42.70;;;;;;5017022;28;88754;-95
2023/07/03 05:58:38;;;;;;;4.93;2.90;;;25.50;43.10;;;;;;5017170;28;90852;-96
2023/07/03 06:01:04;;;;;;;5.15;2.38;;;25.40;43.30;;;;;;5017146;28;89730;-96
2023/07/03 06:03:35;;;;;;;3.95;2.65;;;25.40;43.30;;;;;;5017920;28;87288;-94
2023/07/03 06:06:04;;;;;;;3.97;2.58;;;25.50;43.40;;;;;;5011474;28;92689;-94
2023/07/03 06:08:30;;;;;;;;;;;25.50;43.50;;;;;;5012211;28;89414;-95
2023/07/03 06:11:03;;;;;;;2.90;2.20;;;25.50;43.40;;;;;;5013414;28;89369;-95
2023/07/03 06:13:29;;;;;;;5.63;2.50;;;25.60;43.50;;;;;;5018309;27;88181;-93
2023/07/03 06:15:56;;;;;;;4.55;2.72;;;25.60;43.40;;;;;;5015236;28;88082;-95
2023/07/03 06:18:22;;;;;;;4.70;2.50;;;25.70;43.30;;;;;;5012908;28;88896;-94
2023/07/03 06:20:48;;;;;;;2.95;2.38;;;25.80;43.10;;;;;;5012335;28;89012;-93
2023/07/03 06:23:15;;;;;;;6.65;3.30;;;25.90;43.20;;;;;;5010207;28;87578;-89
2023/07/03 06:25:40;;;;;;;7.32;3.08;;;25.90;42.90;;;;;;5008098;28;89786;-88
2023/07/03 06:28:06;;;;;;;6.95;3.03;;;25.80;42.90;;;;;;5011984;28;88175;-88
2023/07/03 06:30:32;;;;;;;6.47;3.05;;;25.70;43.00;;;;;;5011150;28;87487;-86
2023/07/03 06:32:57;;;;;;;7.97;3.05;;;25.70;43.20;;;;;;5012669;28;87079;-87
2023/07/03 06:35:23;;;;;;;5.97;3.60;;;25.70;43.30;;;;;;5011464;28;87718;-87
2023/07/03 06:37:52;;;;;;;7.50;3.78;;;25.80;43.30;;;;;;5010501;28;91665;-88
2023/07/03 06:40:19;;;;;;;6.53;3.70;;;25.80;42.90;;;;;;5010830;28;88445;-88
2023/07/03 06:42:44;;;;;;;8.25;3.95;;;25.70;43.10;;;;;;5008798;28;87903;-88
2023/07/03 06:45:10;;;;;;;9.82;4.30;;;25.70;43.20;;;;;;5025250;27;87472;-87
2023/07/03 06:47:36;;;;;;;12.95;4.85;;;25.60;43.40;;;;;;5010991;28;88635;-88
2023/07/03 06:50:02;;;;;;;15.93;4.90;;;25.60;43.40;;;;;;5010302;28;87442;-87
2023/07/03 06:52:28;;;;;;;9.88;4.40;;;25.50;43.50;;;;;;5009000;28;87982;-87
2023/07/03 06:54:54;;;;;;;16.55;5.40;;;25.50;43.50;;;;;;5007684;28;86845;-87
2023/07/03 06:57:19;;;;;;;10.68;4.63;;;25.60;43.40;;;;;;5007646;28;90827;-88
2023/07/03 06:59:45;;;;;;;11.63;4.88;;;25.70;43.20;;;;;;5009421;28;87069;-86
2023/07/03 07:02:10;;;;;;;11.20;4.47;;;25.60;43.50;;;;;;5008530;28;88389;-87
2023/07/03 07:04:36;;;;;;;13.85;5.20;;;25.60;43.20;;;;;;5009058;28;90371;-86
2023/07/03 07:07:02;;;;;;;11.45;4.55;;;25.60;43.00;;;;;;5008759;28;90479;-86
2023/07/03 07:09:27;;;;;;;12.15;4.80;;;25.60;42.90;;;;;;5010525;28;89691;-86
2023/07/03 07:11:53;;;;;;;16.20;4.82;;;25.60;42.00;;;;;;5009102;28;87770;-87
2023/07/03 07:14:18;;;;;;;12.48;4.43;;;25.50;41.70;;;;;;5010172;28;87770;-86
2023/07/03 07:16:44;;;;;;;14.43;4.97;;;25.60;41.60;;;;;;5009790;28;88834;-86
2023/07/03 07:19:12;;;;;;;14.65;4.68;;;25.60;41.60;;;;;;5007051;28;86997;-87
2023/07/03 07:21:41;;;;;;;12.82;4.60;;;25.70;41.60;;;;;;5005594;28;88077;-88
2023/07/03 07:24:17;;;;;;;12.30;4.63;;;25.70;41.00;;;;;;5006780;28;87749;-88
2023/07/03 07:26:43;;;;;;;13.27;4.70;;;25.70;41.00;;;;;;5008072;28;89322;-90
2023/07/03 07:29:09;;;;;;;14.23;5.30;;;25.70;41.00;;;;;;5009909;28;87246;-91
2023/07/03 07:31:36;;;;;;;17.00;6.22;;;25.60;41.20;;;;;;5009603;28;87338;-88
2023/07/03 07:34:04;;;;;;;19.05;7.10;;;25.60;42.10;;;;;;5008879;28;87377;-88
2023/07/03 07:36:30;;;;;;;16.05;6.10;;;25.40;43.30;;;;;;5007861;28;88795;-89
2023/07/03 07:38:56;;;;;;;16.77;6.07;;;25.40;43.60;;;;;;5008813;28;88135;-89
2023/07/03 07:41:24;;;;;;;20.45;6.78;;;25.40;43.30;;;;;;5008208;27;87617;-93
2023/07/03 07:43:50;;;;;;;18.45;5.70;;;25.40;43.80;;;;;;5008266;28;87308;-94
2023/07/03 07:46:17;;;;;;;14.60;5.68;;;25.30;44.00;;;;;;5011073;28;86907;-93
2023/07/03 07:48:45;;;;;;;16.70;6.13;;;25.40;44.20;;;;;;5007928;27;89105;-90
2023/07/03 07:51:11;;;;;;;15.37;6.33;;;25.40;44.20;;;;;;5005242;28;89452;-89
2023/07/03 07:53:38;;;;;;;15.63;6.03;;;25.40;44.30;;;;;;5006692;28;88367;-88
2023/07/03 07:56:07;;;;;;;17.50;6.03;;;25.40;44.10;;;;;;5007556;28;93057;-88
2023/07/03 07:58:32;;;;;;;;;;;25.60;44.20;;;;;;5021119;27;89445;-89
2023/07/03 08:00:58;;;;;;;21.02;7.70;;;25.60;43.90;;;;;;5005847;28;87663;-88
2023/07/03 08:03:24;;;;;;;18.60;7.00;;;25.50;44.10;;;;;;5008354;28;88467;-88
2023/07/03 08:05:59;;;;;;;22.75;6.28;;;25.50;44.20;;;;;;5007593;28;87926;-88
2023/07/03 08:08:26;;;;;;;13.00;5.32;;;25.50;44.20;;;;;;5009995;27;86779;-89
2023/07/03 08:10:56;;;;;;;17.33;6.07;;;25.60;43.40;;;;;;5007408;28;87370;-90
2023/07/03 08:13:22;;;;;;;13.25;5.72;;;25.60;42.70;;;;;;5007657;28;89549;-90
2023/07/03 08:15:48;;;;;;;14.70;5.30;;;25.50;42.50;;;;;;5007396;28;90344;-89
2023/07/03 08:18:16;;;;;;;14.15;5.75;;;25.50;42.40;;;;;;5010845;28;88007;-89
2023/07/03 08:20:42;;;;;;;12.65;5.20;;;25.30;43.10;;;;;;5006978;28;86973;-89
2023/07/03 08:23:08;;;;;;;13.90;5.20;;;25.30;43.70;;;;;;5006684;28;87716;-89
2023/07/03 08:25:34;;;;;;;17.10;5.45;;;25.30;43.90;;;;;;5008483;28;87744;-88
2023/07/03 08:27:59;;;;;;;15.30;4.75;;;25.40;44.10;;;;;;5011146;28;88819;-88
2023/07/03 08:30:25;;;;;;;13.15;5.72;;;25.50;43.90;;;;;;5015119;28;87893;-88
2023/07/03 08:32:51;;;;;;;14.27;5.28;;;25.40;44.10;;;;;;5010396;28;89508;-89
2023/07/03 08:35:17;;;;;;;14.85;5.78;;;25.40;44.00;;;;;;5009599;28;89381;-90
2023/07/03 08:37:43;;;;;;;17.33;5.35;;;25.50;43.80;;;;;;5012748;28;90994;-91
2023/07/03 08:40:10;;;;;;;12.02;4.82;;;25.40;43.90;;;;;;5011961;28;88272;-90
2023/07/03 08:42:42;;;;;;;13.18;5.53;;;25.40;44.20;;;;;;5013184;28;88444;-91
2023/07/03 08:45:12;;;;;;;12.38;4.53;;;25.30;44.10;;;;;;5012354;28;90362;-91
2023/07/03 08:47:39;;;;;;;17.08;6.05;;;25.40;44.20;;;;;;5013225;27;88750;-90
2023/07/03 08:50:06;;;;;;;14.60;4.93;;;25.40;44.10;;;;;;5011204;28;87940;-88
2023/07/03 08:52:52;;;;;;;14.90;5.40;;;25.40;43.70;;;;;;5012002;28;87146;-90
2023/07/03 08:55:23;;;;;;;13.02;4.82;;;25.40;44.00;;;;;;5013493;28;88301;-90
2023/07/03 08:57:49;;;;;;;11.48;5.00;;;25.50;43.90;;;;;;5011147;28;91073;-92
2023/07/03 09:00:15;;;;;;;12.00;4.70;;;25.60;42.90;;;;;;5012282;28;88087;-91
2023/07/03 09:02:52;;;;;;;10.45;4.28;;;25.50;42.50;;;;;;5014607;28;89068;-89
2023/07/03 09:05:39;;;;;;;12.35;4.45;;;25.60;41.90;;;;;;5007485;28;88785;-91
2023/07/03 09:08:09;;;;;;;13.88;4.05;;;25.60;40.70;;;;;;5011658;28;88433;-90
2023/07/03 09:10:45;;;;;;;12.55;4.93;;;25.60;40.30;;;;;;5009740;28;87164;-91
2023/07/03 09:13:24;;;;;;;13.02;4.32;;;25.50;40.00;;;;;;5007221;28;89421;-91
2023/07/03 09:16:00;;;;;;;16.50;4.88;;;25.50;39.80;;;;;;5009088;28;88038;-92
2023/07/03 09:18:43;;;;;;;18.20;5.45;;;25.40;39.70;;;;;;5010902;28;90470;-91
2023/07/03 09:21:08;;;;;;;13.80;4.35;;;25.40;39.90;;;;;;5021496;27;87267;-91
2023/07/03 09:23:59;;;;;;;20.10;5.03;;;25.50;39.90;;;;;;5013318;28;87506;-90
2023/07/03 09:26:52;;;;;;;21.40;4.78;;;25.50;39.70;;;;;;5011225;28;90206;-91
2023/07/03 09:29:18;;;;;;;18.42;4.72;;;25.50;39.90;;;;;;5011563;28;90492;-92
2023/07/03 09:31:44;;;;;;;14.27;4.30;;;25.60;39.90;;;;;;5014695;28;88041;-90
2023/07/03 09:34:09;;;;;;;13.38;4.18;;;25.50;40.30;;;;;;5012439;28;87956;-91
2023/07/03 09:36:39;;;;;;;13.48;4.93;;;25.60;39.90;;;;;;5006499;28;89369;-91
2023/07/03 09:39:09;;;;;;;13.25;4.30;;;25.50;40.00;;;;;;5010468;28;88096;-92
2023/07/03 09:41:35;;;;;;;12.35;4.40;;;25.50;40.10;;;;;;5013260;28;87231;-88
2023/07/03 09:44:07;;;;;;;15.35;4.20;;;25.50;40.20;;;;;;5011859;28;88041;-90
2023/07/03 09:46:33;;;;;;;17.50;4.40;;;25.50;40.10;;;;;;5012957;28;90695;-92
2023/07/03 09:49:02;;;;;;;12.23;4.63;;;25.50;40.30;;;;;;5016865;28;88454;-91
2023/07/03 09:51:30;;;;;;;12.55;3.63;;;25.50;40.30;;;;;;5015201;28;87261;-92
2023/07/03 09:53:58;;;;;;;17.83;4.93;;;25.60;40.50;;;;;;5014678;28;87154;-95
2023/07/03 09:56:29;;;;;;;11.02;4.22;;;25.50;41.00;;;;;;5015183;28;89696;-91
2023/07/03 09:59:00;;;;;;;11.23;4.85;;;25.80;41.20;;;;;;5010207;28;89949;-90
2023/07/03 10:01:28;;;;;;;7.47;4.13;;;25.70;41.10;;;;;;5007927;28;88179;-90
2023/07/03 10:04:03;;;;;;;9.73;4.45;;;25.60;41.00;;;;;;5010307;28;87775;-89
2023/07/03 10:06:29;;;;;;;13.43;4.97;;;25.50;41.10;;;;;;5010244;28;87991;-89
2023/07/03 10:09:00;;;;;;;9.93;4.18;;;25.50;41.20;;;;;;5010152;28;87721;-89
2023/07/03 10:11:43;;;;;;;12.75;4.22;;;25.40;41.30;;;;;;5011063;28;87789;-89
2023/07/03 10:14:14;;;;;;;10.18;3.92;;;25.40;41.50;;;;;;5010798;27;87214;-90
2023/07/03 10:16:41;;;;;;;10.52;3.78;;;25.40;41.50;;;;;;5011852;28;87952;-89
2023/07/03 10:19:09;;;;;;;11.32;4.28;;;25.30;41.60;;;;;;5008055;28;90412;-90
2023/07/03 10:21:36;;;;;;;12.60;4.40;;;25.40;41.50;;;;;;5012566;27;88150;-90
2023/07/03 10:24:02;;;;;;;8.82;4.00;;;25.40;41.50;;;;;;5012483;28;87641;-94
2023/07/03 10:26:34;;;;;;;9.05;4.22;;;25.40;41.30;;;;;;5014082;28;89016;-89
2023/07/03 10:29:22;;;;;;;9.95;4.45;;;25.30;41.70;;;;;;5011170;28;88329;-89
2023/07/03 10:32:09;;;;;;;11.43;4.40;;;25.50;42.00;;;;;;5017612;27;88112;-93
2023/07/03 10:35:01;;;;;;;13.48;4.35;;;25.60;42.10;;;;;;5028449;28;89077;-85
2023/07/03 10:37:29;;;;;;;7.90;4.00;;;25.70;41.40;;;;;;5013984;28;87849;-89
2023/07/03 10:40:22;;;;;;;8.95;3.53;;;25.70;41.70;;;;;;5011388;28;90417;-91
2023/07/03 10:43:01;;;;;;;10.60;4.35;;;25.60;41.70;;;;;;5010509;28;87136;-90
2023/07/03 10:45:31;;;;;;;24.50;6.47;;;25.50;42.00;;;;;;5012321;28;88089;-90
2023/07/03 10:48:14;;;;;;;30.92;9.60;;;25.40;42.00;;;;;;5010475;28;92061;-88
2023/07/03 10:50:47;;;;;;;39.67;10.32;;;25.40;42.10;;;;;;5011075;28;89053;-94
2023/07/03 10:53:27;;;;;;;33.00;9.95;;;25.30;42.00;;;;;;5008976;28;87477;-87
2023/07/03 10:56:21;;;;;;;31.65;9.48;;;25.30;42.20;;;;;;5010294;28;88382;-87
2023/07/03 10:59:13;;;;;;;33.95;9.27;;;25.30;42.10;;;;;;5001667;28;91188;-89
2023/07/03 11:01:50;;;;;;;36.10;10.20;;;25.30;41.90;;;;;;5010721;28;88003;-89
2023/07/03 11:04:36;;;;;;;32.22;10.45;;;25.30;42.00;;;;;;5010587;28;87185;-87
2023/07/03 11:07:18;;;;;;;39.13;10.50;;;25.30;41.90;;;;;;5011384;28;87496;-89
2023/07/03 11:10:03;;;;;;;35.25;10.27;;;25.30;42.00;;;;;;5008143;28;89235;-88
2023/07/03 11:12:58;;;;;;;31.88;10.27;;;25.30;42.00;;;;;;5011215;28;87901;-91
2023/07/03 11:15:27;;;;;;;29.48;9.65;;;25.30;41.80;;;;;;5026077;28;89285;-90
2023/07/03 11:18:10;;;;;;;31.65;9.95;;;25.40;41.80;;;;;;5013700;28;87491;-88
2023/07/03 11:21:13;;;;;;;31.45;9.40;;;25.40;41.70;;;;;;5014120;28;87981;-90
2023/07/03 11:24:09;;;;;;;24.20;8.88;;;25.40;41.70;;;;;;5015356;28;88076;-88
2023/07/03 11:26:38;;;;;;;34.60;10.10;;;25.40;41.70;;;;;;5010243;28;87412;-89
2023/07/03 11:29:07;;;;;;;29.27;10.20;;;25.40;41.70;;;;;;5024485;27;87820;-91
2023/07/03 11:31:34;;;;;;;23.05;8.95;;;25.40;41.60;;;;;;5007393;28;92576;-88
2023/07/03 11:34:02;;;;;;;23.17;8.55;;;25.40;41.70;;;;;;5008170;28;90301;-89
2023/07/03 11:36:38;;;;;;;21.67;7.82;;;25.40;41.70;;;;;;5012069;28;88247;-91
2023/07/03 11:39:24;;;;;;;23.98;8.07;;;25.40;41.60;;;;;;5009898;28;92427;-88
2023/07/03 11:42:11;;;;;;;27.90;9.20;;;25.40;41.80;;;;;;5008682;28;89671;-89
2023/07/03 11:44:42;;;;;;;23.83;8.43;;;25.40;41.70;;;;;;5010316;28;88132;-87
2023/07/03 11:47:16;;;;;;;22.30;8.30;;;25.30;41.70;;;;;;5008293;28;87130;-89
2023/07/03 11:49:52;;;;;;;22.20;8.23;;;25.30;41.70;;;;;;5008055;28;89252;-88
2023/07/03 11:52:31;;;;;;;26.38;8.05;;;25.40;41.70;;;;;;5008255;28;89496;-89
2023/07/03 11:55:05;;;;;;;19.80;7.88;;;25.40;41.80;;;;;;5012150;28;88592;-90
2023/07/03 11:57:37;;;;;;;24.42;7.40;;;25.40;42.30;;;;;;5012865;28;87231;-88
2023/07/03 12:00:19;;;;;;;17.05;7.25;;;25.40;41.70;;;;;;5013386;28;90788;-90
2023/07/03 12:03:03;;;;;;;17.52;6.70;;;25.50;41.40;;;;;;5007251;28;88075;-89
2023/07/03 12:05:44;;;;;;;17.40;6.22;;;25.60;41.10;;;;;;5008259;28;87222;-89
2023/07/03 12:08:36;;;;;;;18.75;6.53;;;25.80;40.00;;;;;;5008900;28;88417;-90
2023/07/03 12:11:03;;;;;;;20.65;5.32;;;25.70;39.90;;;;;;5009404;28;88090;-90
2023/07/03 12:13:45;;;;;;;16.77;5.20;;;25.70;40.20;;;;;;5010033;28;88526;-93
2023/07/03 12:16:26;;;;;;;14.63;4.80;;;25.80;40.10;;;;;;5028361;27;89148;-90
2023/07/03 12:18:56;;;;;;;14.50;4.95;;;26.00;39.70;;;;;;5010682;28;87269;-90
2023/07/03 12:21:22;;;;;;;12.80;4.65;;;26.10;39.40;;;;;;5028650;28;88164;-92
2023/07/03 12:23:48;;;;;;;13.77;4.13;;;26.20;38.20;;;;;;5012818;28;90571;-92
2023/07/03 12:26:16;;;;;;;7.63;3.42;;;26.40;37.60;;;;;;5012318;28;90434;-93
2023/07/03 12:28:42;;;;;;;11.18;3.47;;;26.30;36.60;;;;;;5014362;28;87680;-90
2023/07/03 12:31:09;;;;;;;10.98;3.47;;;26.30;36.30;;;;;;5014110;28;89625;-91
2023/07/03 12:33:34;;;;;;;7.55;3.05;;;26.40;36.00;;;;;;5012878;28;89271;-91
2023/07/03 12:36:00;;;;;;;9.10;3.30;;;26.40;35.20;;;;;;5014782;28;89058;-94
2023/07/03 12:38:25;;;;;;;9.77;3.50;;;26.50;35.10;;;;;;5013535;28;87305;-92
2023/07/03 12:40:51;;;;;;;11.63;3.35;;;26.40;35.40;;;;;;5015513;28;94244;-89
2023/07/03 12:43:18;;;;;;;11.63;2.85;;;26.40;35.20;;;;;;5012561;28;90760;-93
2023/07/03 12:45:51;;;;;;;11.18;2.75;;;26.50;34.90;;;;;;4996803;28;89291;-92
2023/07/03 12:48:22;;;;;;;11.85;2.90;;;26.50;35.10;;;;;;5029251;27;87219;-91
2023/07/03 12:50:53;;;;;;;14.10;3.08;;;26.50;34.40;;;;;;5007144;28;89707;-91
2023/07/03 12:53:19;;;;;;;9.40;2.63;;;26.60;35.30;;;;;;5012746;28;88132;-93